createdAt,value
2023-03-13T00:00:07.913Z,39.30
2023-03-13T00:01:16.962Z,39.90
2023-03-13T00:02:22.383Z,38.15
2023-03-13T00:03:29.190Z,38.97
2023-03-13T00:04:34.785Z,37.35
2023-03-13T00:05:41.463Z,36.38
2023-03-13T00:06:48.193Z,38.92
2023-03-13T00:07:53.550Z,37.80
2023-03-13T00:09:02.033Z,37.13
2023-03-13T00:10:08.318Z,43.60
2023-03-13T00:11:15.942Z,45.53
2023-03-13T00:12:23.438Z,45.20
2023-03-13T00:13:30.129Z,40.45
2023-03-13T00:14:36.756Z,46.63
2023-03-13T00:15:42.049Z,43.35
2023-03-13T00:16:48.884Z,38.08
2023-03-13T00:17:54.369Z,37.83
2023-03-13T00:19:01.725Z,37.22
2023-03-13T00:20:08.841Z,35.63
2023-03-13T00:21:15.561Z,36.85
2023-03-13T00:22:20.960Z,36.90
2023-03-13T00:23:27.726Z,36.60
2023-03-13T00:24:35.498Z,36.22
2023-03-13T00:25:40.864Z,37.78
2023-03-13T00:26:47.538Z,35.65
2023-03-13T00:27:54.604Z,35.30
2023-03-13T00:29:01.443Z,35.85
2023-03-13T00:30:07.248Z,34.45
2023-03-13T00:31:15.268Z,36.23
2023-03-13T00:32:20.660Z,34.28
2023-03-13T00:33:27.376Z,35.30
2023-03-13T00:34:34.702Z,34.00
2023-03-13T00:35:40.135Z,34.75
2023-03-13T00:36:46.898Z,36.42
2023-03-13T00:37:52.313Z,33.63
2023-03-13T00:38:59.677Z,35.85
2023-03-13T00:40:06.050Z,35.08
2023-03-13T00:41:14.280Z,35.05
2023-03-13T00:42:19.744Z,33.70
2023-03-13T00:43:28.212Z,36.83
2023-03-13T00:44:35.306Z,35.65
2023-03-13T00:45:40.653Z,35.20
2023-03-13T00:46:47.461Z,35.10
2023-03-13T00:47:52.797Z,34.35
2023-03-13T00:49:00.111Z,37.08
2023-03-13T00:50:05.459Z,38.92
2023-03-13T00:51:12.510Z,38.55
2023-03-13T00:52:17.976Z,35.63
2023-03-13T00:53:24.720Z,35.03
2023-03-13T00:54:31.439Z,36.78
2023-03-13T00:55:36.795Z,39.90
2023-03-13T00:56:43.481Z,39.33
2023-03-13T00:57:48.999Z,39.40
2023-03-13T00:58:57.588Z,39.78
2023-03-13T01:00:02.908Z,38.42
2023-03-13T01:01:13.482Z,39.55
2023-03-13T01:02:18.904Z,38.67
2023-03-13T01:03:27.369Z,41.17
2023-03-13T01:04:32.815Z,41.37
2023-03-13T01:05:39.481Z,41.13
2023-03-13T01:06:46.514Z,44.10
2023-03-13T01:07:52.583Z,45.03
2023-03-13T01:08:59.414Z,48.13
2023-03-13T01:10:06.120Z,44.42
2023-03-13T01:11:12.892Z,46.00
2023-03-13T01:12:20.304Z,47.63
2023-03-13T01:13:25.608Z,46.70
2023-03-13T01:14:34.028Z,46.47
2023-03-13T01:15:39.333Z,43.70
2023-03-13T01:16:46.519Z,40.88
2023-03-13T01:17:51.801Z,42.00
2023-03-13T01:18:59.577Z,41.20
2023-03-13T01:20:05.013Z,43.50
2023-03-13T01:21:11.918Z,41.97
2023-03-13T01:22:17.259Z,40.55
2023-03-13T01:23:23.846Z,43.55
2023-03-13T01:24:29.184Z,45.50
2023-03-13T01:25:35.862Z,46.17
2023-03-13T01:26:41.303Z,46.17
2023-03-13T01:27:47.942Z,44.88
2023-03-13T01:28:54.634Z,45.03
2023-03-13T01:30:01.621Z,43.72
2023-03-13T01:31:15.970Z,43.75
2023-03-13T01:32:21.252Z,43.55
2023-03-13T01:33:28.017Z,41.63
2023-03-13T01:34:34.587Z,42.55
2023-03-13T01:35:40.032Z,43.50
2023-03-13T01:36:48.273Z,41.38
2023-03-13T01:37:53.559Z,40.50
2023-03-13T01:39:01.219Z,39.00
2023-03-13T01:40:06.767Z,38.78
2023-03-13T01:41:15.919Z,41.83
2023-03-13T01:42:21.170Z,40.33
2023-03-13T01:43:29.211Z,40.92
2023-03-13T01:44:54.397Z,40.60
2023-03-13T01:46:10.414Z,40.28
2023-03-13T01:47:17.365Z,40.75
2023-03-13T01:48:23.563Z,41.13
2023-03-13T01:49:34.778Z,38.17
2023-03-13T01:50:40.046Z,40.53
2023-03-13T01:51:49.424Z,41.88
2023-03-13T01:52:54.832Z,40.95
2023-03-13T01:54:05.390Z,41.40
2023-03-13T01:55:13.401Z,41.72
2023-03-13T01:56:23.414Z,41.97
2023-03-13T01:57:30.590Z,38.92
2023-03-13T01:58:37.436Z,41.35
2023-03-13T01:59:45.684Z,40.72
2023-03-13T02:00:52.862Z,41.97
2023-03-13T02:02:02.910Z,38.72
2023-03-13T02:03:12.951Z,38.88
2023-03-13T02:04:21.977Z,43.08
2023-03-13T02:05:29.008Z,41.75
2023-03-13T02:06:37.979Z,41.05
2023-03-13T02:07:45.040Z,37.72
2023-03-13T02:08:55.036Z,41.10
2023-03-13T02:10:00.644Z,41.40
2023-03-13T02:11:13.935Z,40.42
2023-03-13T02:12:22.661Z,40.27
2023-03-13T02:13:29.855Z,39.30
2023-03-13T02:14:37.285Z,41.80
2023-03-13T02:15:45.248Z,41.47
2023-03-13T02:16:53.411Z,43.60
2023-03-13T02:18:02.336Z,42.65
2023-03-13T02:19:15.095Z,38.35
2023-03-13T02:20:23.706Z,38.20
2023-03-13T02:21:43.742Z,39.38
2023-03-13T02:22:51.294Z,43.65
2023-03-13T02:24:01.654Z,44.63
2023-03-13T02:25:11.466Z,43.72
2023-03-13T02:26:20.183Z,42.22
2023-03-13T02:27:26.919Z,44.03
2023-03-13T02:28:35.246Z,44.05
2023-03-13T02:29:41.971Z,43.42
2023-03-13T02:30:48.262Z,42.55
2023-03-13T02:31:55.257Z,42.88
2023-03-13T02:33:00.666Z,44.50
2023-03-13T02:34:07.842Z,44.35
2023-03-13T02:35:15.454Z,40.40
2023-03-13T02:36:29.482Z,44.17
2023-03-13T02:37:35.600Z,42.03
2023-03-13T02:38:44.452Z,38.40
2023-03-13T02:39:51.129Z,41.58
2023-03-13T02:40:58.167Z,40.00
2023-03-13T02:42:07.314Z,39.58
2023-03-13T02:43:16.477Z,40.05
2023-03-13T02:44:23.152Z,39.17
2023-03-13T02:45:28.428Z,38.67
2023-03-13T02:46:38.392Z,36.67
2023-03-13T02:47:44.212Z,37.17
2023-03-13T02:48:54.734Z,36.17
2023-03-13T02:50:00.063Z,37.17
2023-03-13T02:51:12.084Z,39.35
2023-03-13T02:52:24.083Z,39.17
2023-03-13T02:53:34.866Z,38.53
2023-03-13T02:54:42.470Z,39.63
2023-03-13T02:55:47.900Z,33.45
2023-03-13T02:56:57.822Z,29.63
2023-03-13T02:58:04.883Z,30.13
2023-03-13T02:59:11.536Z,29.40
2023-03-13T03:00:18.724Z,28.13
2023-03-13T03:01:25.305Z,28.98
2023-03-13T03:02:30.577Z,27.67
2023-03-13T03:03:37.335Z,28.08
2023-03-13T03:04:43.962Z,28.23
2023-03-13T03:05:49.429Z,27.30
2023-03-13T03:06:56.937Z,28.80
2023-03-13T03:08:02.194Z,30.52
2023-03-13T03:09:09.945Z,28.77
2023-03-13T03:10:15.409Z,28.65
2023-03-13T03:11:22.208Z,28.27
2023-03-13T03:12:27.654Z,28.95
2023-03-13T03:13:36.081Z,28.63
2023-03-13T03:14:41.732Z,28.65
2023-03-13T03:15:48.429Z,28.70
2023-03-13T03:16:53.816Z,29.00
2023-03-13T03:18:00.445Z,28.23
2023-03-13T03:19:05.852Z,30.17
2023-03-13T03:20:14.309Z,29.73
2023-03-13T03:21:19.686Z,27.52
2023-03-13T03:22:26.418Z,29.20
2023-03-13T03:23:31.766Z,29.35
2023-03-13T03:24:38.501Z,29.48
2023-03-13T03:25:43.954Z,30.27
2023-03-13T03:26:50.647Z,29.20
2023-03-13T03:27:56.178Z,27.02
2023-03-13T03:29:04.654Z,29.65
2023-03-13T03:30:11.132Z,31.35
2023-03-13T03:31:19.323Z,31.67
2023-03-13T03:32:24.710Z,27.13
2023-03-13T03:33:31.646Z,28.63
2023-03-13T03:34:37.115Z,28.50
2023-03-13T03:35:43.895Z,26.83
2023-03-13T03:36:49.240Z,27.20
2023-03-13T03:37:55.920Z,28.65
2023-03-13T03:39:01.314Z,27.45
2023-03-13T03:40:08.912Z,26.50
2023-03-13T03:41:15.910Z,27.70
2023-03-13T03:42:22.574Z,26.60
2023-03-13T03:43:27.979Z,26.55
2023-03-13T03:44:36.371Z,26.33
2023-03-13T03:45:41.753Z,27.73
2023-03-13T03:46:48.494Z,26.15
2023-03-13T03:47:53.927Z,27.17
2023-03-13T03:49:00.595Z,28.13
2023-03-13T03:50:06.302Z,27.77
2023-03-13T03:51:12.946Z,27.42
2023-03-13T03:52:18.756Z,26.33
2023-03-13T03:53:25.447Z,25.30
2023-03-13T03:54:31.254Z,26.77
2023-03-13T03:55:38.326Z,25.63
2023-03-13T03:56:45.017Z,25.48
2023-03-13T03:57:50.327Z,25.52
2023-03-13T03:58:57.000Z,25.63
2023-03-13T04:00:04.077Z,26.23
2023-03-13T04:01:10.848Z,26.10
2023-03-13T04:02:16.237Z,24.98
2023-03-13T04:03:23.059Z,24.90
2023-03-13T04:04:28.491Z,24.77
2023-03-13T04:05:35.218Z,24.88
2023-03-13T04:06:40.637Z,24.75
2023-03-13T04:07:47.405Z,24.38
2023-03-13T04:08:52.721Z,26.17
2023-03-13T04:09:59.346Z,23.58
2023-03-13T04:11:05.071Z,23.90
2023-03-13T04:12:12.772Z,23.73
2023-03-13T04:13:18.170Z,24.70
2023-03-13T04:14:24.827Z,24.23
2023-03-13T04:15:32.099Z,24.43
2023-03-13T04:16:38.826Z,25.52
2023-03-13T04:17:44.286Z,26.30
2023-03-13T04:18:50.969Z,26.25
2023-03-13T04:19:56.324Z,24.42
2023-03-13T04:21:06.672Z,24.13
2023-03-13T04:22:12.017Z,22.92
2023-03-13T04:23:18.837Z,23.30
2023-03-13T04:24:24.210Z,24.30
2023-03-13T04:25:31.004Z,24.05
2023-03-13T04:26:36.381Z,24.13
2023-03-13T04:27:43.053Z,23.90
2023-03-13T04:28:48.410Z,24.05
2023-03-13T04:29:55.072Z,25.00
2023-03-13T04:31:02.844Z,25.80
2023-03-13T04:32:10.012Z,24.98
2023-03-13T04:33:15.444Z,24.52
2023-03-13T04:34:22.189Z,24.65
2023-03-13T04:35:27.609Z,24.55
2023-03-13T04:36:34.326Z,25.40
2023-03-13T04:37:39.838Z,24.67
2023-03-13T04:38:46.508Z,24.42
2023-03-13T04:39:51.911Z,25.02
2023-03-13T04:40:58.673Z,26.13
2023-03-13T04:42:04.043Z,24.70
2023-03-13T04:43:10.836Z,24.52
2023-03-13T04:44:16.192Z,24.00
2023-03-13T04:45:23.003Z,25.40
2023-03-13T04:46:30.199Z,25.90
2023-03-13T04:47:36.924Z,25.35
2023-03-13T04:48:42.343Z,25.37
2023-03-13T04:49:49.076Z,25.05
2023-03-13T04:50:54.458Z,26.50
2023-03-13T04:52:01.149Z,27.88
2023-03-13T04:53:06.967Z,28.23
2023-03-13T04:54:13.843Z,28.88
2023-03-13T04:55:20.593Z,30.48
2023-03-13T04:56:42.150Z,30.85
2023-03-13T04:57:49.365Z,32.80
2023-03-13T04:58:55.031Z,33.05
2023-03-13T05:00:01.851Z,32.20
2023-03-13T05:01:07.453Z,44.65
2023-03-13T05:02:16.763Z,48.10
2023-03-13T05:03:22.159Z,51.15
2023-03-13T05:04:28.874Z,48.92
2023-03-13T05:05:35.729Z,52.42
2023-03-13T05:06:42.707Z,52.33
2023-03-13T05:07:47.999Z,58.20
2023-03-13T05:08:54.755Z,60.83
2023-03-13T05:10:00.125Z,52.70
2023-03-13T05:11:06.875Z,50.63
2023-03-13T05:12:14.076Z,52.47
2023-03-13T05:13:19.706Z,45.97
2023-03-13T05:14:26.314Z,40.17
2023-03-13T05:15:31.796Z,39.38
2023-03-13T05:16:38.532Z,38.92
2023-03-13T05:17:45.527Z,41.20
2023-03-13T05:18:52.080Z,42.67
2023-03-13T05:19:58.629Z,42.13
2023-03-13T05:21:04.612Z,40.58
2023-03-13T05:22:11.254Z,40.17
2023-03-13T05:23:16.523Z,39.42
2023-03-13T05:24:23.280Z,43.47
2023-03-13T05:25:28.625Z,44.38
2023-03-13T05:26:35.209Z,46.13
2023-03-13T05:27:40.577Z,41.55
2023-03-13T05:28:47.210Z,31.17
2023-03-13T05:29:52.477Z,37.13
2023-03-13T05:30:59.110Z,33.83
2023-03-13T05:32:04.408Z,29.80
2023-03-13T05:33:12.745Z,27.77
2023-03-13T05:34:18.035Z,28.63
2023-03-13T05:35:24.694Z,25.38
2023-03-13T05:36:31.414Z,26.83
2023-03-13T05:37:37.287Z,26.25
2023-03-13T05:38:45.073Z,25.20
2023-03-13T05:39:50.319Z,26.17
2023-03-13T05:40:56.884Z,27.02
2023-03-13T05:42:02.168Z,25.83
2023-03-13T05:43:08.898Z,25.80
2023-03-13T05:44:14.193Z,25.37
2023-03-13T05:45:20.912Z,25.73
2023-03-13T05:46:26.195Z,25.20
2023-03-13T05:47:35.603Z,25.38
2023-03-13T05:48:42.998Z,26.63
2023-03-13T05:49:49.651Z,24.95
2023-03-13T05:50:54.943Z,26.27
2023-03-13T05:52:01.526Z,25.65
2023-03-13T05:53:06.792Z,25.55
2023-03-13T05:54:15.424Z,26.27
2023-03-13T05:55:21.541Z,25.17
2023-03-13T05:56:28.191Z,24.23
2023-03-13T05:57:33.425Z,25.58
2023-03-13T05:58:40.056Z,25.75
2023-03-13T05:59:45.339Z,27.05
2023-03-13T06:00:52.052Z,25.27
2023-03-13T06:01:57.328Z,27.60
2023-03-13T06:03:03.968Z,26.50
2023-03-13T06:04:11.058Z,26.52
2023-03-13T06:05:17.683Z,25.77
2023-03-13T06:06:23.053Z,25.40
2023-03-13T06:07:29.612Z,27.40
2023-03-13T06:08:36.206Z,26.58
2023-03-13T06:09:42.472Z,27.58
2023-03-13T06:10:49.069Z,28.45
2023-03-13T06:11:54.423Z,28.08
2023-03-13T06:13:13.682Z,27.77
2023-03-13T06:14:24.235Z,29.58
2023-03-13T06:15:31.070Z,26.33
2023-03-13T06:16:36.452Z,26.38
2023-03-13T06:17:43.164Z,26.33
2023-03-13T06:18:48.597Z,26.55
2023-03-13T06:19:57.070Z,27.40
2023-03-13T06:21:04.993Z,29.90
2023-03-13T06:22:10.360Z,28.73
2023-03-13T06:23:17.108Z,26.88
2023-03-13T06:24:23.813Z,27.92
2023-03-13T06:25:29.217Z,28.45
2023-03-13T06:26:35.878Z,29.35
2023-03-13T06:27:42.671Z,29.15
2023-03-13T06:28:49.441Z,28.07
2023-03-13T06:29:54.755Z,28.90
2023-03-13T06:31:06.114Z,28.70
2023-03-13T06:32:11.733Z,28.77
2023-03-13T06:33:18.725Z,28.10
2023-03-13T06:34:24.094Z,28.20
2023-03-13T06:35:32.509Z,27.73
2023-03-13T06:36:37.956Z,26.52
2023-03-13T06:37:44.689Z,27.45
2023-03-13T06:38:50.057Z,27.30
2023-03-13T06:39:56.694Z,26.50
2023-03-13T06:41:03.497Z,27.60
2023-03-13T06:42:09.527Z,26.60
2023-03-13T06:43:16.279Z,27.17
2023-03-13T06:44:21.742Z,25.45
2023-03-13T06:45:28.391Z,27.38
2023-03-13T06:46:33.866Z,26.00
2023-03-13T06:47:40.599Z,27.58
2023-03-13T06:48:46.258Z,28.13
2023-03-13T06:49:53.697Z,27.45
2023-03-13T06:51:00.772Z,26.10
2023-03-13T06:52:07.456Z,26.48
2023-03-13T06:53:18.070Z,26.58
2023-03-13T06:54:24.730Z,26.48
2023-03-13T06:55:30.151Z,27.55
2023-03-13T06:56:36.850Z,26.77
2023-03-13T06:57:43.558Z,27.42
2023-03-13T06:58:49.986Z,27.58
2023-03-13T06:59:56.616Z,28.33
2023-03-13T07:01:03.662Z,29.45
2023-03-13T07:02:10.618Z,29.47
2023-03-13T07:03:16.214Z,29.20
2023-03-13T07:04:23.170Z,28.40
2023-03-13T07:05:28.693Z,28.38
2023-03-13T07:06:37.391Z,28.85
2023-03-13T07:07:43.004Z,29.48
2023-03-13T07:08:50.072Z,29.23
2023-03-13T07:09:55.469Z,29.88
2023-03-13T07:11:04.841Z,29.23
2023-03-13T07:12:12.325Z,29.40
2023-03-13T07:13:20.110Z,30.00
2023-03-13T07:14:26.837Z,29.13
2023-03-13T07:15:32.201Z,28.73
2023-03-13T07:16:38.921Z,30.15
2023-03-13T07:17:44.375Z,30.10
2023-03-13T07:18:51.041Z,29.10
2023-03-13T07:19:57.842Z,30.90
2023-03-13T07:21:06.500Z,30.95
2023-03-13T07:22:14.913Z,29.85
2023-03-13T07:23:20.358Z,29.63
2023-03-13T07:24:27.059Z,29.23
2023-03-13T07:25:32.530Z,29.42
2023-03-13T07:26:39.348Z,28.80
2023-03-13T07:27:44.742Z,28.95
2023-03-13T07:28:51.513Z,28.90
2023-03-13T07:29:56.996Z,28.52
2023-03-13T07:31:10.934Z,27.30
2023-03-13T07:32:17.708Z,29.40
2023-03-13T07:33:23.082Z,27.90
2023-03-13T07:34:29.937Z,28.30
2023-03-13T07:35:35.283Z,27.20
2023-03-13T07:36:42.960Z,29.50
2023-03-13T07:37:50.046Z,30.35
2023-03-13T07:38:57.321Z,30.08
2023-03-13T07:40:03.229Z,28.88
2023-03-13T07:41:10.058Z,30.23
2023-03-13T07:42:17.131Z,28.67
2023-03-13T07:43:22.888Z,29.30
2023-03-13T07:44:29.586Z,28.20
2023-03-13T07:45:35.002Z,29.27
2023-03-13T07:46:41.675Z,29.27
2023-03-13T07:47:47.013Z,30.88
2023-03-13T07:48:54.125Z,28.95
2023-03-13T07:50:00.824Z,30.00
2023-03-13T07:51:08.248Z,31.38
2023-03-13T07:52:14.938Z,29.58
2023-03-13T07:53:24.282Z,30.58
2023-03-13T07:54:31.130Z,29.60
2023-03-13T07:55:36.480Z,30.95
2023-03-13T07:56:43.290Z,29.90
2023-03-13T07:57:50.037Z,28.80
2023-03-13T07:58:56.789Z,30.08
2023-03-13T08:00:02.150Z,29.63
2023-03-13T08:01:13.556Z,31.08
2023-03-13T08:02:19.051Z,27.73
2023-03-13T08:03:26.711Z,29.42
2023-03-13T08:04:33.548Z,30.73
2023-03-13T08:05:38.965Z,29.55
2023-03-13T08:06:45.824Z,31.23
2023-03-13T08:07:52.593Z,29.70
2023-03-13T08:09:01.757Z,30.83
2023-03-13T08:10:08.994Z,28.98
2023-03-13T08:11:16.474Z,30.63
2023-03-13T08:12:23.483Z,28.83
2023-03-13T08:13:29.873Z,29.00
2023-03-13T08:14:36.439Z,30.00
2023-03-13T08:15:43.050Z,28.90
2023-03-13T08:16:49.660Z,29.90
2023-03-13T08:17:55.011Z,29.10
2023-03-13T08:19:02.479Z,30.13
2023-03-13T08:20:09.757Z,29.10
2023-03-13T08:21:17.477Z,28.80
2023-03-13T08:22:24.057Z,30.70
2023-03-13T08:23:29.372Z,32.35
2023-03-13T08:24:37.883Z,33.33
2023-03-13T08:25:44.581Z,31.70
2023-03-13T08:26:51.220Z,29.98
2023-03-13T08:27:56.535Z,31.10
2023-03-13T08:29:04.338Z,30.50
2023-03-13T08:30:12.212Z,30.92
2023-03-13T08:31:20.774Z,29.70
2023-03-13T08:32:27.500Z,28.40
2023-03-13T08:33:34.143Z,30.45
2023-03-13T08:34:39.417Z,32.42
2023-03-13T08:35:46.112Z,29.58
2023-03-13T08:36:54.291Z,30.00
2023-03-13T08:37:59.548Z,30.10
2023-03-13T08:39:08.317Z,30.02
2023-03-13T08:40:16.069Z,33.17
2023-03-13T08:41:23.732Z,29.45
2023-03-13T08:42:29.082Z,31.33
2023-03-13T08:43:35.727Z,30.90
2023-03-13T08:44:42.365Z,30.45
2023-03-13T08:45:49.029Z,31.00
2023-03-13T08:46:54.420Z,29.67
2023-03-13T08:48:01.127Z,30.20
2023-03-13T08:49:08.756Z,31.48
2023-03-13T08:50:15.891Z,31.42
2023-03-13T08:51:22.422Z,31.85
2023-03-13T08:52:29.902Z,29.27
2023-03-13T08:53:35.916Z,31.63
2023-03-13T08:54:42.550Z,30.35
2023-03-13T08:55:56.853Z,30.15
2023-03-13T08:57:03.585Z,30.13
2023-03-13T08:58:10.225Z,30.40
2023-03-13T08:59:16.991Z,32.42
2023-03-13T09:00:24.970Z,31.90
2023-03-13T09:01:33.135Z,31.65
2023-03-13T09:02:39.839Z,31.45
2023-03-13T09:03:46.757Z,31.10
2023-03-13T09:04:53.378Z,30.63
2023-03-13T09:05:59.875Z,29.85
2023-03-13T09:07:06.506Z,32.10
2023-03-13T09:08:11.978Z,33.33
2023-03-13T09:09:18.710Z,32.05
2023-03-13T09:10:25.355Z,31.83
2023-03-13T09:11:33.766Z,32.25
2023-03-13T09:12:39.089Z,33.25
2023-03-13T09:13:46.807Z,32.47
2023-03-13T09:14:52.103Z,29.98
2023-03-13T09:15:59.596Z,29.93
2023-03-13T09:17:06.882Z,30.88
2023-03-13T09:18:12.955Z,32.70
2023-03-13T09:19:19.621Z,32.22
2023-03-13T09:20:24.876Z,30.50
2023-03-13T09:21:33.017Z,29.80
2023-03-13T09:22:39.629Z,33.53
2023-03-13T09:23:46.248Z,33.65
2023-03-13T09:24:52.927Z,32.17
2023-03-13T09:25:59.372Z,32.10
2023-03-13T09:27:07.896Z,31.03
2023-03-13T09:28:14.582Z,32.07
2023-03-13T09:29:21.223Z,31.27
2023-03-13T09:30:27.888Z,32.40
2023-03-13T09:31:35.528Z,31.15
2023-03-13T09:32:40.888Z,31.73
2023-03-13T09:33:47.913Z,30.65
2023-03-13T09:34:54.487Z,32.58
2023-03-13T09:35:59.854Z,31.88
2023-03-13T09:37:06.479Z,31.63
2023-03-13T09:38:13.113Z,32.73
2023-03-13T09:39:19.790Z,31.70
2023-03-13T09:40:26.937Z,32.40
2023-03-13T09:41:38.713Z,31.77
2023-03-13T09:42:51.588Z,30.85
2023-03-13T09:44:02.393Z,32.28
2023-03-13T09:45:11.550Z,32.10
2023-03-13T09:46:19.980Z,31.50
2023-03-13T09:47:29.204Z,31.08
2023-03-13T09:48:37.826Z,29.48
2023-03-13T09:49:46.244Z,30.40
2023-03-13T09:50:59.194Z,32.53
2023-03-13T09:52:14.496Z,31.65
2023-03-13T09:53:27.997Z,30.95
2023-03-13T09:54:40.153Z,33.08
2023-03-13T09:55:48.165Z,32.33
2023-03-13T09:56:58.706Z,32.05
2023-03-13T09:58:10.204Z,33.15
2023-03-13T09:59:22.234Z,31.73
2023-03-13T10:00:31.382Z,32.30
2023-03-13T10:01:37.766Z,31.93
2023-03-13T10:02:45.390Z,31.73
2023-03-13T10:04:01.618Z,32.45
2023-03-13T10:05:17.129Z,31.25
2023-03-13T10:06:26.204Z,31.67
2023-03-13T10:07:32.805Z,33.67
2023-03-13T10:08:39.780Z,32.30
2023-03-13T10:09:47.508Z,31.63
2023-03-13T10:10:57.927Z,31.98
2023-03-13T10:12:12.109Z,33.70
2023-03-13T10:13:25.102Z,31.53
2023-03-13T10:14:35.046Z,32.20
2023-03-13T10:15:45.596Z,31.80
2023-03-13T10:16:56.226Z,33.38
2023-03-13T10:18:04.724Z,33.88
2023-03-13T10:19:16.261Z,32.33
2023-03-13T10:20:27.669Z,32.30
2023-03-13T10:21:37.579Z,31.02
2023-03-13T10:22:46.455Z,30.00
2023-03-13T10:23:55.835Z,32.97
2023-03-13T10:25:02.786Z,31.03
2023-03-13T10:26:09.804Z,31.40
2023-03-13T10:27:17.473Z,31.25
2023-03-13T10:28:26.225Z,31.77
2023-03-13T10:29:33.164Z,31.02
2023-03-13T10:30:41.113Z,31.30
2023-03-13T10:31:50.303Z,30.60
2023-03-13T10:33:01.855Z,29.90
2023-03-13T10:34:11.866Z,31.50
2023-03-13T10:35:25.837Z,30.90
2023-03-13T10:36:44.100Z,30.03
2023-03-13T10:37:49.496Z,30.27
2023-03-13T10:38:57.189Z,30.67
2023-03-13T10:40:17.238Z,32.13
2023-03-13T10:41:30.273Z,30.95
2023-03-13T10:42:37.766Z,30.15
2023-03-13T10:43:53.679Z,32.28
2023-03-13T10:45:03.901Z,34.33
2023-03-13T10:46:10.658Z,35.38
2023-03-13T10:47:18.732Z,34.38
2023-03-13T10:48:26.448Z,35.47
2023-03-13T10:49:34.411Z,35.85
2023-03-13T10:50:41.097Z,34.58
2023-03-13T10:51:51.984Z,33.55
2023-03-13T10:52:58.993Z,36.40
2023-03-13T10:54:04.545Z,34.83
2023-03-13T10:55:14.001Z,34.78
2023-03-13T10:56:27.417Z,35.53
2023-03-13T10:57:35.460Z,34.88
2023-03-13T10:58:47.456Z,34.05
2023-03-13T10:59:54.840Z,33.80
2023-03-13T11:01:19.301Z,33.47
2023-03-13T11:02:27.761Z,33.10
2023-03-13T11:03:36.733Z,33.30
2023-03-13T11:04:43.577Z,33.15
2023-03-13T11:05:59.434Z,32.40
2023-03-13T11:07:08.828Z,32.97
2023-03-13T11:08:28.092Z,33.00
2023-03-13T11:09:35.339Z,32.75
2023-03-13T11:10:40.681Z,33.63
2023-03-13T11:11:51.416Z,34.40
2023-03-13T11:12:59.360Z,33.42
2023-03-13T11:14:18.460Z,34.35
2023-03-13T11:15:27.918Z,34.08
2023-03-13T11:16:34.691Z,35.63
2023-03-13T11:17:42.484Z,36.17
2023-03-13T11:19:02.758Z,34.00
2023-03-13T11:20:27.284Z,36.42
2023-03-13T11:21:40.275Z,35.25
2023-03-13T11:23:10.145Z,35.92
2023-03-13T11:24:19.910Z,34.30
2023-03-13T11:25:31.302Z,36.10
2023-03-13T11:26:39.520Z,34.22
2023-03-13T11:27:49.822Z,36.20
2023-03-13T11:29:01.401Z,36.33
2023-03-13T11:30:24.273Z,34.92
2023-03-13T11:31:35.554Z,33.88
2023-03-13T11:32:45.162Z,35.13
2023-03-13T11:34:00.461Z,35.97
2023-03-13T11:35:09.363Z,33.63
2023-03-13T11:36:22.230Z,34.67
2023-03-13T11:37:29.950Z,35.75
2023-03-13T11:38:40.025Z,35.65
2023-03-13T11:39:53.622Z,35.78
2023-03-13T11:41:09.437Z,34.58
2023-03-13T11:42:30.580Z,36.35
2023-03-13T11:43:55.575Z,35.10
2023-03-13T11:45:06.900Z,33.53
2023-03-13T11:46:21.974Z,35.95
2023-03-13T11:47:38.659Z,36.80
2023-03-13T11:49:10.712Z,36.30
2023-03-13T11:50:22.884Z,34.25
2023-03-13T11:51:32.601Z,37.20
2023-03-13T11:52:48.091Z,36.65
2023-03-13T11:54:13.432Z,38.00
2023-03-13T11:55:38.498Z,38.40
2023-03-13T11:56:48.143Z,37.50
2023-03-13T11:57:58.963Z,39.58
2023-03-13T11:59:18.624Z,38.63
2023-03-13T12:00:29.691Z,38.80
2023-03-13T12:01:40.943Z,36.87
2023-03-13T12:02:51.313Z,39.10
2023-03-13T12:04:03.546Z,37.35
2023-03-13T12:05:12.797Z,37.47
2023-03-13T12:06:28.972Z,37.10
2023-03-13T12:07:39.810Z,38.15
2023-03-13T12:08:49.371Z,37.38
2023-03-13T12:09:59.512Z,39.08
